メインページ
METAR-TAF:

METAR-TAF

空港 :

ワガドゥグー, ブルキナファソ

ワガドゥグー空港

緯度: 12-21N, 経度: 001-31W, 海抜: 316m

現時点の気象観測

当レポートは1時間13分前の01:00(UTC)に作成
北/北東の風 6kt
気温 20°C
湿度 21%
気圧 1014 hPa
視程10km以上
1,500メートル以下は雲なし、積乱雲なし

METAR: DFFD 220100Z 03006KT CAVOK 20/M03 Q1014 NOSIG

時間: 02:13 (02:13 UTC)

予報

当レポートは3時間13分前の23:00(UTC)に作成
予報は22日の 00時(UTC)から 23日の 06時(UTC)まで有効
北東の風 10kt
視程: 8000m
22日の 06時(UTC)から 22日の 10時(UTC)まで一時的に
視程: 3500m
広範な塵
22日の 17時(UTC)から 22日の 20時(UTC)まで一時的に
視程: 4000m
広範な塵

TAF: DFFD 212300Z 2200/2306 04010KT 8000 NSC TEMPO 2206/2210 3500 DU TEMPO 2217/2220 4000 DU

4,000以上の空港の気象観測と天気予報(METAR報とTAF報)

利用可能な観測所は地図上に黄色い丸と赤い丸で示す。

丸の上にカーソルを重ねると観測所名を参照できる。

次にクリックすると気象観測と天気予報を参照できる。

マップの切り替え:黒色「×」印の緑ボタンをクリックして拡大、「-」印の緑ボタンをクリックして縮小、緑色の三角印をクリックして隣りの地図に切り替え


METAR-TAF: